createdAt,value
2019-02-19T00:00:15.417Z,92.2
2019-02-19T00:01:14.448Z,92.2
2019-02-19T00:02:14.720Z,92.2
2019-02-19T00:03:14.981Z,92.2
2019-02-19T00:04:15.246Z,92.2
2019-02-19T00:05:14.532Z,92.1
2019-02-19T00:06:14.808Z,92.2
2019-02-19T00:07:15.071Z,92.2
2019-02-19T00:08:15.366Z,92.3
2019-02-19T00:09:14.636Z,92.4
2019-02-19T00:10:14.914Z,92.5
2019-02-19T00:11:14.956Z,92.3
2019-02-19T00:12:15.217Z,92.3
2019-02-19T00:13:14.479Z,92.1
2019-02-19T00:14:14.742Z,92.0
2019-02-19T00:15:15.015Z,91.9
2019-02-19T00:16:15.450Z,92.0
2019-02-19T00:17:14.729Z,92.2
2019-02-19T00:18:15.003Z,92.3
2019-02-19T00:19:15.273Z,92.5
2019-02-19T00:20:14.546Z,92.3
2019-02-19T00:21:14.607Z,92.2
2019-02-19T00:22:14.879Z,92.0
2019-02-19T00:23:15.143Z,92.0
2019-02-19T00:24:15.408Z,92.0
2019-02-19T00:25:14.677Z,92.1
2019-02-19T00:26:14.947Z,91.9
2019-02-19T00:27:15.214Z,92.0
2019-02-19T00:28:14.495Z,91.8
2019-02-19T00:29:14.761Z,91.7
2019-02-19T00:30:15.032Z,91.7
2019-02-19T00:31:15.114Z,91.8
2019-02-19T00:32:15.396Z,91.8
2019-02-19T00:33:14.672Z,91.9
2019-02-19T00:34:14.940Z,92.0
2019-02-19T00:35:15.205Z,92.0
2019-02-19T00:36:14.465Z,92.2
2019-02-19T00:37:14.729Z,92.2
2019-02-19T00:38:14.990Z,92.4
2019-02-19T00:39:15.258Z,92.5
2019-02-19T00:40:14.538Z,92.5
2019-02-19T00:41:14.555Z,92.4
2019-02-19T00:42:14.857Z,92.4
2019-02-19T00:43:15.116Z,92.5
2019-02-19T00:44:15.388Z,92.7
2019-02-19T00:45:17.110Z,92.7
2019-02-19T00:46:15.419Z,92.6
2019-02-19T00:47:14.675Z,92.5
2019-02-19T00:48:14.949Z,92.6
2019-02-19T00:49:15.222Z,92.8
2019-02-19T00:50:14.488Z,92.8
2019-02-19T00:51:14.532Z,92.8
2019-02-19T00:52:14.796Z,92.8
2019-02-19T00:53:15.060Z,92.8
2019-02-19T00:54:15.334Z,92.8
2019-02-19T00:55:14.598Z,92.7
2019-02-19T00:56:14.869Z,92.7
2019-02-19T00:57:15.148Z,92.8
2019-02-19T00:58:15.407Z,92.8
2019-02-19T00:59:14.680Z,92.9
2019-02-19T01:00:14.942Z,92.9
2019-02-19T01:01:15.014Z,92.9
2019-02-19T01:02:15.328Z,92.9
2019-02-19T01:03:14.586Z,92.9
2019-02-19T01:04:14.858Z,92.9
2019-02-19T01:05:15.121Z,93.1
2019-02-19T01:06:15.395Z,93.2
2019-02-19T01:07:14.661Z,93.1
2019-02-19T01:08:14.965Z,93.0
2019-02-19T01:09:15.245Z,93.1
2019-02-19T01:10:14.518Z,93.1
2019-02-19T01:11:14.547Z,93.0
2019-02-19T01:12:14.817Z,93.2
2019-02-19T01:13:15.078Z,93.0
2019-02-19T01:14:15.343Z,92.9
2019-02-19T01:15:14.658Z,92.8
2019-02-19T01:16:14.918Z,92.9
2019-02-19T01:17:15.186Z,93.1
2019-02-19T01:18:14.452Z,93.2
2019-02-19T01:19:14.714Z,93.2
2019-02-19T01:20:14.988Z,93.2
2019-02-19T01:21:15.033Z,93.1
2019-02-19T01:22:15.316Z,93.1
2019-02-19T01:23:14.566Z,93.1
2019-02-19T01:24:14.835Z,93.2
2019-02-19T01:25:15.114Z,93.2
2019-02-19T01:26:15.376Z,93.1
2019-02-19T01:27:14.640Z,93.1
2019-02-19T01:28:14.911Z,93.2
2019-02-19T01:29:15.174Z,93.2
2019-02-19T01:30:14.493Z,93.2
2019-02-19T01:31:14.505Z,93.2
2019-02-19T01:32:14.772Z,93.2
2019-02-19T01:33:15.040Z,93.1
2019-02-19T01:34:15.297Z,93.1
2019-02-19T01:35:14.571Z,93.2
2019-02-19T01:36:14.834Z,93.2
2019-02-19T01:37:15.102Z,93.1
2019-02-19T01:38:15.375Z,93.1
2019-02-19T01:39:14.642Z,93.2
2019-02-19T01:40:14.928Z,93.2
2019-02-19T01:41:14.963Z,93.2
2019-02-19T01:42:15.223Z,93.2
2019-02-19T01:43:14.500Z,93.2
2019-02-19T01:44:14.765Z,93.3
2019-02-19T01:45:15.057Z,93.5
2019-02-19T01:46:15.325Z,93.5
2019-02-19T01:47:14.603Z,93.5
2019-02-19T01:48:15.147Z,93.6
2019-02-19T01:49:15.409Z,93.2
2019-02-19T01:50:14.699Z,93.2
2019-02-19T01:51:14.761Z,93.1
2019-02-19T01:52:15.042Z,93.1
2019-02-19T01:53:15.324Z,92.7
2019-02-19T01:54:14.594Z,92.7
2019-02-19T01:55:14.860Z,92.8
2019-02-19T01:56:15.127Z,93.0
2019-02-19T01:57:15.413Z,93.1
2019-02-19T01:58:14.687Z,93.3
2019-02-19T01:59:14.952Z,93.4
2019-02-19T02:00:15.234Z,93.4
2019-02-19T02:01:15.269Z,93.4
2019-02-19T02:02:14.531Z,93.5
2019-02-19T02:03:14.791Z,93.4
2019-02-19T02:04:15.047Z,93.4
2019-02-19T02:05:15.324Z,93.4
2019-02-19T02:06:14.588Z,93.4
2019-02-19T02:07:14.855Z,93.5
2019-02-19T02:08:15.121Z,93.7
2019-02-19T02:09:15.400Z,93.8
2019-02-19T02:10:14.690Z,93.8
2019-02-19T02:11:14.733Z,93.8
2019-02-19T02:12:14.998Z,93.7
2019-02-19T02:13:15.274Z,93.6
2019-02-19T02:14:14.534Z,93.6
2019-02-19T02:15:14.804Z,93.7
2019-02-19T02:16:15.070Z,93.6
2019-02-19T02:17:15.333Z,93.4
2019-02-19T02:18:14.601Z,93.4
2019-02-19T02:19:14.858Z,93.5
2019-02-19T02:20:15.178Z,93.6
2019-02-19T02:21:15.190Z,93.8
2019-02-19T02:22:14.458Z,94.0
2019-02-19T02:23:14.721Z,94.0
2019-02-19T02:24:14.984Z,93.9
2019-02-19T02:25:15.255Z,93.8
2019-02-19T02:26:14.522Z,93.4
2019-02-19T02:27:14.807Z,93.5
2019-02-19T02:28:15.084Z,93.4
2019-02-19T02:29:15.351Z,93.5
2019-02-19T02:30:14.649Z,93.4
2019-02-19T02:31:14.679Z,93.4
2019-02-19T02:32:14.952Z,93.3
2019-02-19T02:33:15.217Z,93.4
2019-02-19T02:34:14.484Z,93.4
2019-02-19T02:35:14.755Z,93.5
2019-02-19T02:36:15.020Z,93.6
2019-02-19T02:37:15.292Z,93.7
2019-02-19T02:38:14.563Z,93.7
2019-02-19T02:39:14.847Z,93.7
2019-02-19T02:40:15.143Z,93.8
2019-02-19T02:41:15.158Z,93.8
2019-02-19T02:42:14.422Z,93.8
2019-02-19T02:43:14.691Z,93.8
2019-02-19T02:44:14.947Z,93.8
2019-02-19T02:45:15.231Z,93.8
2019-02-19T02:46:14.515Z,93.8
2019-02-19T02:47:14.783Z,93.9
2019-02-19T02:48:15.046Z,93.9
2019-02-19T02:49:15.659Z,93.9
2019-02-19T02:50:14.938Z,93.8
2019-02-19T02:51:14.993Z,93.8
2019-02-19T02:52:15.279Z,93.8
2019-02-19T02:53:14.547Z,93.7
2019-02-19T02:54:14.805Z,93.8
2019-02-19T02:55:15.094Z,93.8
2019-02-19T02:56:15.369Z,94.0
2019-02-19T02:57:14.635Z,94.2
2019-02-19T02:58:14.900Z,94.1
2019-02-19T02:59:15.171Z,94.1
2019-02-19T03:00:14.443Z,94.0
2019-02-19T03:01:14.488Z,93.9
2019-02-19T03:02:14.770Z,93.8
2019-02-19T03:03:15.041Z,93.7
2019-02-19T03:04:15.325Z,93.6
2019-02-19T03:05:14.594Z,93.7
2019-02-19T03:06:14.848Z,93.8
2019-02-19T03:07:15.120Z,93.8
2019-02-19T03:08:15.398Z,93.9
2019-02-19T03:09:14.669Z,94.0
2019-02-19T03:10:14.941Z,94.0
2019-02-19T03:11:14.982Z,94.1
2019-02-19T03:12:15.252Z,94.1
2019-02-19T03:13:14.516Z,94.0
2019-02-19T03:14:14.785Z,94.0
2019-02-19T03:15:15.069Z,94.1
2019-02-19T03:16:15.227Z,94.2
2019-02-19T03:17:14.501Z,94.3
2019-02-19T03:18:14.762Z,94.3
2019-02-19T03:19:15.030Z,94.4
2019-02-19T03:20:15.301Z,94.4
2019-02-19T03:21:15.353Z,94.5
2019-02-19T03:22:14.633Z,94.6
2019-02-19T03:23:14.904Z,94.7
2019-02-19T03:24:15.174Z,94.5
2019-02-19T03:25:14.451Z,94.5
2019-02-19T03:26:14.718Z,94.3
2019-02-19T03:27:14.982Z,94.3
2019-02-19T03:28:15.240Z,94.0
2019-02-19T03:29:14.509Z,93.9
2019-02-19T03:30:14.818Z,93.9
2019-02-19T03:31:14.837Z,93.8
2019-02-19T03:32:15.153Z,93.7
2019-02-19T03:33:14.449Z,93.8
2019-02-19T03:34:14.725Z,93.9
2019-02-19T03:35:14.994Z,94.0
2019-02-19T03:36:15.264Z,94.1
2019-02-19T03:37:14.542Z,94.1
2019-02-19T03:38:14.811Z,94.1
2019-02-19T03:39:15.077Z,94.2
2019-02-19T03:40:15.391Z,94.2
2019-02-19T03:41:15.407Z,94.2
2019-02-19T03:42:14.671Z,94.2
2019-02-19T03:43:14.941Z,94.3
2019-02-19T03:44:15.243Z,94.3
2019-02-19T03:45:14.525Z,94.4
2019-02-19T03:46:14.802Z,94.4
2019-02-19T03:47:15.072Z,94.4
2019-02-19T03:48:15.335Z,94.5
2019-02-19T03:49:14.613Z,94.5
2019-02-19T03:50:14.920Z,94.5
2019-02-19T03:51:14.941Z,94.5
2019-02-19T03:52:15.212Z,94.4
2019-02-19T03:53:14.485Z,94.3
2019-02-19T03:54:14.750Z,94.3
2019-02-19T03:55:15.016Z,94.3
2019-02-19T03:56:15.289Z,94.3
2019-02-19T03:57:14.550Z,94.3
2019-02-19T03:58:14.825Z,94.3
2019-02-19T03:59:15.100Z,94.4
2019-02-19T04:00:15.380Z,94.5
2019-02-19T04:01:14.417Z,94.5
2019-02-19T04:02:14.683Z,94.5
2019-02-19T04:03:14.955Z,94.6
2019-02-19T04:04:15.225Z,94.5
2019-02-19T04:05:14.496Z,94.5
2019-02-19T04:06:14.821Z,94.5
2019-02-19T04:07:15.089Z,94.3
2019-02-19T04:08:15.348Z,94.3
2019-02-19T04:09:14.603Z,94.4
2019-02-19T04:10:14.882Z,94.5
2019-02-19T04:11:14.924Z,94.5
2019-02-19T04:12:15.191Z,94.5
2019-02-19T04:13:14.447Z,94.5
2019-02-19T04:14:14.720Z,94.5
2019-02-19T04:15:15.019Z,94.5
2019-02-19T04:16:21.652Z,94.5
2019-02-19T04:17:14.965Z,94.5
2019-02-19T04:18:15.258Z,94.4
2019-02-19T04:19:14.542Z,94.4
2019-02-19T04:20:14.816Z,94.6
2019-02-19T04:21:14.867Z,94.6
2019-02-19T04:22:15.133Z,94.6
2019-02-19T04:23:15.403Z,94.6
2019-02-19T04:24:14.668Z,94.6
2019-02-19T04:25:14.972Z,94.7
2019-02-19T04:26:15.252Z,94.6
2019-02-19T04:27:14.538Z,94.7
2019-02-19T04:28:14.808Z,94.7
2019-02-19T04:29:15.068Z,94.7
2019-02-19T04:30:15.355Z,94.8
2019-02-19T04:31:15.432Z,94.8
2019-02-19T04:32:14.698Z,94.9
2019-02-19T04:33:14.968Z,94.8
2019-02-19T04:34:15.238Z,94.8
2019-02-19T04:35:14.511Z,94.8
2019-02-19T04:36:14.771Z,94.8
2019-02-19T04:37:15.053Z,94.7
2019-02-19T04:38:15.329Z,94.7
2019-02-19T04:39:14.597Z,94.8
2019-02-19T04:40:14.864Z,95.1
2019-02-19T04:41:14.937Z,95.2
2019-02-19T04:42:15.204Z,95.2
2019-02-19T04:43:14.481Z,95.2
2019-02-19T04:44:14.755Z,95.2
2019-02-19T04:45:15.024Z,95.2
2019-02-19T04:46:15.557Z,95.2
2019-02-19T04:47:14.828Z,95.2
2019-02-19T04:48:15.093Z,95.2
2019-02-19T04:49:15.361Z,95.2
2019-02-19T04:50:14.664Z,95.2
2019-02-19T04:51:14.697Z,95.2
2019-02-19T04:52:14.964Z,95.1
2019-02-19T04:53:15.229Z,95.2
2019-02-19T04:54:14.501Z,95.2
2019-02-19T04:55:14.781Z,95.0
2019-02-19T04:56:15.050Z,95.1
2019-02-19T04:57:15.320Z,95.0
2019-02-19T04:58:14.584Z,94.7
2019-02-19T04:59:14.848Z,94.8
2019-02-19T05:00:15.126Z,94.8
2019-02-19T05:01:15.168Z,94.8
2019-02-19T05:02:14.424Z,94.8
2019-02-19T05:03:14.688Z,94.9
2019-02-19T05:04:14.950Z,95.0
2019-02-19T05:05:15.217Z,95.2
2019-02-19T05:06:14.491Z,95.2
2019-02-19T05:07:14.761Z,95.2
2019-02-19T05:08:15.031Z,95.3
2019-02-19T05:09:15.305Z,95.4
2019-02-19T05:10:14.597Z,95.4
2019-02-19T05:11:14.615Z,95.3
2019-02-19T05:12:14.873Z,95.4
2019-02-19T05:13:15.142Z,95.5
2019-02-19T05:14:15.408Z,95.4
2019-02-19T05:15:14.677Z,95.3
2019-02-19T05:16:14.939Z,95.3
2019-02-19T05:17:16.515Z,95.2
2019-02-19T05:18:14.787Z,95.0
2019-02-19T05:19:15.042Z,94.8
2019-02-19T05:20:15.322Z,94.7
2019-02-19T05:21:15.510Z,94.7
2019-02-19T05:22:14.784Z,94.7
2019-02-19T05:23:15.053Z,94.7
2019-02-19T05:24:15.319Z,94.7
2019-02-19T05:25:14.596Z,94.9
2019-02-19T05:26:14.861Z,95.0
2019-02-19T05:27:15.116Z,95.0
2019-02-19T05:28:15.387Z,95.1
2019-02-19T05:29:14.654Z,95.0
2019-02-19T05:30:14.931Z,94.8
2019-02-19T05:31:14.976Z,94.8
2019-02-19T05:32:15.248Z,94.8
2019-02-19T05:33:14.558Z,94.7
2019-02-19T05:34:14.823Z,94.7
2019-02-19T05:35:15.098Z,94.8
2019-02-19T05:36:15.381Z,94.9
2019-02-19T05:37:14.716Z,95.1
2019-02-19T05:38:14.983Z,95.2
2019-02-19T05:39:15.251Z,95.3
2019-02-19T05:40:14.515Z,95.2
2019-02-19T05:41:14.616Z,95.4
2019-02-19T05:42:14.936Z,95.5
2019-02-19T05:43:15.203Z,95.4
2019-02-19T05:44:14.682Z,95.4
2019-02-19T05:45:14.950Z,95.2
2019-02-19T05:46:15.211Z,94.8
2019-02-19T05:47:14.493Z,94.6
2019-02-19T05:48:14.772Z,94.2
2019-02-19T05:49:15.050Z,94.0
2019-02-19T05:50:15.316Z,94.0
2019-02-19T05:51:15.374Z,94.2
2019-02-19T05:52:14.652Z,94.0
2019-02-19T05:53:14.926Z,94.1
2019-02-19T05:54:15.203Z,94.1
2019-02-19T05:55:14.486Z,94.0
2019-02-19T05:56:14.754Z,94.2
2019-02-19T05:57:15.027Z,94.3
2019-02-19T05:58:15.305Z,94.4
2019-02-19T05:59:14.592Z,94.6
2019-02-19T06:00:14.878Z,94.9
2019-02-19T06:01:14.897Z,95.0
2019-02-19T06:02:15.155Z,95.0
2019-02-19T06:03:14.426Z,95.0
2019-02-19T06:04:14.707Z,95.1
2019-02-19T06:05:14.968Z,95.0
2019-02-19T06:06:15.236Z,94.8
2019-02-19T06:07:14.510Z,94.8
2019-02-19T06:08:14.765Z,94.3
2019-02-19T06:09:15.033Z,94.1
2019-02-19T06:10:15.307Z,94.1
2019-02-19T06:11:15.362Z,94.1
2019-02-19T06:12:14.626Z,94.1
2019-02-19T06:13:14.888Z,94.1
2019-02-19T06:14:15.139Z,94.1
2019-02-19T06:15:15.423Z,94.0
2019-02-19T06:16:14.691Z,94.0
2019-02-19T06:17:14.949Z,94.0
2019-02-19T06:18:15.208Z,93.8
2019-02-19T06:19:14.492Z,94.0
2019-02-19T06:20:14.777Z,94.2
2019-02-19T06:21:14.810Z,94.3
2019-02-19T06:22:15.072Z,94.2
2019-02-19T06:23:15.338Z,94.2
2019-02-19T06:24:14.608Z,94.4
2019-02-19T06:25:14.914Z,94.4
2019-02-19T06:26:15.183Z,94.7
2019-02-19T06:27:14.457Z,94.7
2019-02-19T06:28:14.724Z,94.7
2019-02-19T06:29:14.985Z,94.8
2019-02-19T06:30:15.267Z,94.8
2019-02-19T06:31:15.312Z,94.7
2019-02-19T06:32:14.572Z,94.3
2019-02-19T06:33:14.839Z,94.0
2019-02-19T06:34:15.100Z,94.0
2019-02-19T06:35:15.383Z,93.9
2019-02-19T06:36:14.676Z,93.9
2019-02-19T06:37:14.951Z,93.8
2019-02-19T06:38:15.212Z,93.8
2019-02-19T06:39:14.479Z,93.9
2019-02-19T06:40:14.756Z,93.8
2019-02-19T06:41:14.809Z,94.0
2019-02-19T06:42:15.073Z,94.0
2019-02-19T06:43:15.332Z,94.2
2019-02-19T06:44:14.597Z,94.2
2019-02-19T06:45:14.897Z,94.2
2019-02-19T06:46:15.163Z,94.3
2019-02-19T06:47:14.428Z,94.4
2019-02-19T06:48:14.701Z,94.5
2019-02-19T06:49:14.969Z,94.5
2019-02-19T06:50:15.255Z,94.5
2019-02-19T06:51:15.293Z,94.4
2019-02-19T06:52:14.552Z,94.4
2019-02-19T06:53:14.821Z,94.2
2019-02-19T06:54:15.082Z,94.0
2019-02-19T06:55:15.415Z,93.7
2019-02-19T06:56:14.675Z,93.3
2019-02-19T06:57:14.942Z,93.1
2019-02-19T06:58:15.218Z,93.0
2019-02-19T06:59:14.490Z,93.0
2019-02-19T07:00:14.768Z,93.0
2019-02-19T07:01:14.820Z,93.0
2019-02-19T07:02:15.085Z,92.9
2019-02-19T07:03:15.353Z,93.0
2019-02-19T07:04:14.614Z,92.8
2019-02-19T07:05:14.869Z,92.8
2019-02-19T07:06:15.133Z,92.7
2019-02-19T07:07:15.409Z,92.8
2019-02-19T07:08:14.672Z,92.9
2019-02-19T07:09:14.962Z,92.8
2019-02-19T07:10:15.229Z,92.6
2019-02-19T07:11:15.308Z,92.0
2019-02-19T07:12:14.581Z,91.7
2019-02-19T07:13:14.851Z,91.6
2019-02-19T07:14:15.123Z,91.8
2019-02-19T07:15:15.387Z,91.8
2019-02-19T07:16:14.660Z,91.9
2019-02-19T07:17:16.053Z,91.9
2019-02-19T07:18:15.338Z,91.9
2019-02-19T07:19:14.612Z,91.8
2019-02-19T07:20:14.888Z,91.7
2019-02-19T07:21:14.941Z,91.5
2019-02-19T07:22:15.208Z,91.5
2019-02-19T07:23:14.472Z,91.0
2019-02-19T07:24:14.744Z,90.7
2019-02-19T07:25:15.007Z,90.5
2019-02-19T07:26:15.305Z,90.4
2019-02-19T07:27:14.570Z,90.3
2019-02-19T07:28:14.847Z,90.3
2019-02-19T07:29:15.242Z,90.3
2019-02-19T07:30:14.526Z,90.3
2019-02-19T07:31:14.582Z,90.2
2019-02-19T07:32:14.863Z,90.0
2019-02-19T07:33:15.137Z,89.8
2019-02-19T07:34:15.403Z,89.5
2019-02-19T07:35:14.682Z,89.5
2019-02-19T07:36:14.950Z,89.2
2019-02-19T07:37:15.223Z,89.2
2019-02-19T07:38:14.490Z,89.0
2019-02-19T07:39:14.762Z,89.1
2019-02-19T07:40:15.039Z,89.1
2019-02-19T07:41:15.091Z,89.2
2019-02-19T07:42:15.356Z,89.1
2019-02-19T07:43:14.629Z,89.0
2019-02-19T07:44:14.888Z,89.0
2019-02-19T07:45:15.156Z,89.0
2019-02-19T07:46:14.428Z,89.0
2019-02-19T07:47:14.696Z,88.9
2019-02-19T07:48:14.966Z,88.8
2019-02-19T07:49:15.226Z,88.6
2019-02-19T07:50:14.504Z,88.1
2019-02-19T07:51:14.554Z,88.3
2019-02-19T07:52:14.816Z,88.0
2019-02-19T07:53:15.086Z,87.8
2019-02-19T07:54:15.342Z,87.7
2019-02-19T07:55:14.620Z,87.4
2019-02-19T07:56:14.887Z,87.0
2019-02-19T07:57:15.173Z,86.7
2019-02-19T07:58:14.494Z,86.3
2019-02-19T07:59:14.775Z,86.1
2019-02-19T08:00:15.047Z,86.0
2019-02-19T08:01:15.077Z,86.2
2019-02-19T08:02:15.341Z,86.7
2019-02-19T08:03:14.612Z,86.6
2019-02-19T08:04:14.871Z,86.7
2019-02-19T08:05:15.133Z,86.7
2019-02-19T08:06:15.440Z,86.4
2019-02-19T08:07:14.702Z,85.8
2019-02-19T08:08:14.961Z,85.9
2019-02-19T08:09:15.224Z,85.9
2019-02-19T08:10:14.493Z,85.6
2019-02-19T08:11:14.554Z,85.7
2019-02-19T08:12:14.830Z,85.8
2019-02-19T08:13:15.108Z,85.8
2019-02-19T08:14:15.382Z,85.5
2019-02-19T08:15:14.666Z,85.3
2019-02-19T08:16:14.930Z,85.0
2019-02-19T08:17:15.201Z,85.3
2019-02-19T08:18:14.464Z,85.1
2019-02-19T08:19:14.724Z,85.2
2019-02-19T08:20:16.418Z,84.6
2019-02-19T08:21:15.033Z,84.1
2019-02-19T08:22:15.293Z,84.2
2019-02-19T08:23:14.560Z,85.2
2019-02-19T08:24:14.834Z,85.6
2019-02-19T08:25:15.121Z,85.0
2019-02-19T08:26:15.411Z,84.3
2019-02-19T08:27:14.675Z,83.8
2019-02-19T08:28:14.952Z,83.4
2019-02-19T08:29:15.214Z,82.8
2019-02-19T08:30:14.485Z,83.0
2019-02-19T08:31:14.529Z,82.1
2019-02-19T08:32:14.795Z,80.8
2019-02-19T08:33:15.063Z,80.2
2019-02-19T08:34:15.333Z,80.1
2019-02-19T08:35:14.597Z,80.0
2019-02-19T08:36:14.869Z,79.8
2019-02-19T08:37:15.127Z,79.8
2019-02-19T08:38:15.390Z,79.3
2019-02-19T08:39:14.657Z,78.4
2019-02-19T08:40:14.953Z,77.2
2019-02-19T08:41:14.990Z,77.5
2019-02-19T08:42:15.256Z,77.2
2019-02-19T08:43:14.526Z,77.2
2019-02-19T08:44:14.800Z,76.8
2019-02-19T08:45:15.070Z,76.2
2019-02-19T08:46:15.361Z,75.7
2019-02-19T08:47:14.624Z,75.0
2019-02-19T08:48:14.891Z,74.6
2019-02-19T08:49:15.165Z,74.0
2019-02-19T08:50:14.440Z,73.3
2019-02-19T08:51:14.465Z,73.0
2019-02-19T08:52:14.767Z,72.3
2019-02-19T08:53:15.036Z,72.2
2019-02-19T08:54:15.305Z,72.3
2019-02-19T08:55:14.568Z,72.3
2019-02-19T08:56:14.842Z,73.5
2019-02-19T08:57:15.147Z,73.8
2019-02-19T08:58:14.414Z,73.5
2019-02-19T08:59:14.703Z,73.0
2019-02-19T09:00:14.987Z,73.3
2019-02-19T09:01:15.039Z,73.2
2019-02-19T09:02:15.305Z,71.7
2019-02-19T09:03:14.566Z,70.8
2019-02-19T09:04:14.832Z,70.3
2019-02-19T09:05:15.097Z,69.8
2019-02-19T09:06:15.382Z,70.0
2019-02-19T09:07:14.695Z,70.0
2019-02-19T09:08:14.968Z,70.0
2019-02-19T09:09:15.232Z,69.9
2019-02-19T09:10:14.515Z,69.0
2019-02-19T09:11:14.581Z,69.1
2019-02-19T09:12:14.866Z,70.1
2019-02-19T09:13:15.132Z,70.0
2019-02-19T09:14:15.384Z,69.2
2019-02-19T09:15:14.656Z,68.3
2019-02-19T09:16:14.933Z,68.6
2019-02-19T09:17:15.195Z,67.9
2019-02-19T09:18:14.459Z,67.5
2019-02-19T09:19:14.727Z,68.8
2019-02-19T09:20:15.004Z,67.6
2019-02-19T09:21:15.092Z,65.8
2019-02-19T09:22:15.368Z,65.4
2019-02-19T09:23:14.631Z,65.8
2019-02-19T09:24:14.904Z,65.2
2019-02-19T09:25:15.179Z,64.9
2019-02-19T09:26:14.448Z,66.8
2019-02-19T09:27:14.725Z,67.4
2019-02-19T09:28:15.002Z,65.8
2019-02-19T09:29:15.266Z,65.8
2019-02-19T09:30:14.531Z,66.7
2019-02-19T09:31:14.608Z,66.3
2019-02-19T09:32:14.892Z,66.5
2019-02-19T09:33:15.170Z,66.3
2019-02-19T09:34:14.432Z,67.4
2019-02-19T09:35:14.702Z,67.4
2019-02-19T09:36:14.962Z,66.5
2019-02-19T09:37:15.229Z,67.7
2019-02-19T09:38:14.554Z,67.5
2019-02-19T09:39:14.848Z,67.8
2019-02-19T09:40:15.131Z,66.8
2019-02-19T09:41:15.173Z,66.8
2019-02-19T09:42:14.444Z,66.6
2019-02-19T09:43:14.716Z,67.5
2019-02-19T09:44:14.979Z,67.2
2019-02-19T09:45:15.239Z,67.2
2019-02-19T09:46:14.506Z,68.5
2019-02-19T09:47:14.782Z,69.0
2019-02-19T09:48:15.061Z,68.3
2019-02-19T09:49:15.344Z,67.3
2019-02-19T09:50:14.649Z,68.3
2019-02-19T09:51:14.671Z,68.0
2019-02-19T09:52:14.940Z,68.2
2019-02-19T09:53:15.210Z,68.8
2019-02-19T09:54:14.475Z,68.2
2019-02-19T09:55:14.755Z,68.1
2019-02-19T09:56:15.022Z,68.5
2019-02-19T09:57:15.340Z,69.4
2019-02-19T09:58:14.601Z,69.3
2019-02-19T09:59:14.873Z,69.5
2019-02-19T10:00:15.179Z,68.5
2019-02-19T10:01:15.212Z,68.7
2019-02-19T10:02:14.475Z,67.3
2019-02-19T10:03:14.740Z,68.0
2019-02-19T10:04:15.016Z,68.4
2019-02-19T10:05:15.285Z,68.8
2019-02-19T10:06:14.553Z,68.9
2019-02-19T10:07:14.824Z,69.4
2019-02-19T10:08:15.099Z,67.9
2019-02-19T10:09:15.375Z,68.3
2019-02-19T10:10:14.655Z,68.3
2019-02-19T10:11:14.684Z,68.2
2019-02-19T10:12:14.958Z,68.7
2019-02-19T10:13:15.229Z,68.5
2019-02-19T10:14:14.512Z,68.2
2019-02-19T10:15:14.794Z,68.3
2019-02-19T10:16:15.057Z,69.1
2019-02-19T10:17:15.349Z,69.8
2019-02-19T10:18:14.618Z,69.3
2019-02-19T10:19:14.884Z,68.8
2019-02-19T10:20:15.157Z,69.2
2019-02-19T10:21:15.221Z,70.1
2019-02-19T10:22:14.494Z,70.7
2019-02-19T10:23:14.773Z,70.1
2019-02-19T10:24:15.043Z,70.4
2019-02-19T10:25:15.328Z,69.8
2019-02-19T10:26:14.594Z,69.5
2019-02-19T10:27:14.851Z,68.9
2019-02-19T10:28:15.118Z,69.2
2019-02-19T10:29:15.404Z,69.5
2019-02-19T10:30:14.675Z,69.5
2019-02-19T10:31:14.726Z,69.7
2019-02-19T10:32:15.000Z,69.8
2019-02-19T10:33:15.268Z,69.7
2019-02-19T10:34:14.542Z,69.7
2019-02-19T10:35:14.805Z,69.7
2019-02-19T10:36:15.074Z,69.4
2019-02-19T10:37:15.353Z,68.7
2019-02-19T10:38:14.628Z,68.1
2019-02-19T10:39:14.902Z,67.7
2019-02-19T10:40:15.180Z,67.7
2019-02-19T10:41:15.237Z,68.3
2019-02-19T10:42:14.503Z,67.9
2019-02-19T10:43:14.765Z,67.7
2019-02-19T10:44:15.035Z,69.2
2019-02-19T10:45:15.315Z,70.2
2019-02-19T10:46:14.593Z,71.7
2019-02-19T10:47:14.851Z,71.0
2019-02-19T10:48:19.448Z,69.3
2019-02-19T10:49:14.750Z,69.2
2019-02-19T10:50:15.037Z,69.0
2019-02-19T10:51:15.043Z,69.0
2019-02-19T10:52:15.299Z,70.1
2019-02-19T10:53:14.562Z,68.8
2019-02-19T10:54:14.834Z,69.3
2019-02-19T10:55:15.093Z,68.7
2019-02-19T10:56:15.370Z,66.5
2019-02-19T10:57:14.646Z,66.4
2019-02-19T10:58:23.320Z,64.8
2019-02-19T10:59:14.668Z,64.5
2019-02-19T11:00:14.947Z,64.5
2019-02-19T11:01:15.013Z,64.7
2019-02-19T11:02:15.274Z,64.5
2019-02-19T11:03:14.534Z,64.0
2019-02-19T11:04:14.810Z,64.7
2019-02-19T11:05:15.088Z,64.8
2019-02-19T11:06:15.356Z,64.7
2019-02-19T11:07:14.615Z,64.2
2019-02-19T11:08:14.880Z,64.9
2019-02-19T11:09:15.143Z,65.2
2019-02-19T11:10:14.437Z,64.7
2019-02-19T11:11:14.466Z,64.8
2019-02-19T11:12:14.726Z,64.9
2019-02-19T11:13:14.992Z,65.5
2019-02-19T11:14:15.269Z,65.4
2019-02-19T11:15:14.533Z,65.2
2019-02-19T11:16:14.807Z,64.5
2019-02-19T11:17:15.076Z,65.7
2019-02-19T11:18:15.360Z,65.5
2019-02-19T11:19:14.625Z,64.9
2019-02-19T11:20:14.906Z,65.2
2019-02-19T11:21:20.091Z,65.0
2019-02-19T11:22:15.397Z,65.3
2019-02-19T11:23:14.685Z,65.1
2019-02-19T11:24:14.970Z,65.7
2019-02-19T11:25:15.246Z,65.1
2019-02-19T11:26:14.766Z,65.2
2019-02-19T11:27:16.934Z,65.9
2019-02-19T11:28:15.228Z,66.2
2019-02-19T11:29:14.497Z,66.6
2019-02-19T11:30:14.765Z,66.5
2019-02-19T11:31:14.817Z,65.9
2019-02-19T11:32:15.077Z,66.1
2019-02-19T11:33:15.354Z,66.1
2019-02-19T11:34:14.622Z,66.7
2019-02-19T11:35:14.892Z,67.3
2019-02-19T11:36:15.171Z,67.3
2019-02-19T11:37:14.430Z,67.5
2019-02-19T11:38:14.698Z,67.3
2019-02-19T11:39:14.972Z,67.1
2019-02-19T11:40:15.254Z,66.9
2019-02-19T11:41:15.306Z,66.8
2019-02-19T11:42:14.571Z,66.2
2019-02-19T11:43:14.838Z,65.8
2019-02-19T11:44:15.097Z,65.9
2019-02-19T11:45:15.363Z,66.5
2019-02-19T11:46:14.634Z,66.5
2019-02-19T11:47:14.900Z,66.2
2019-02-19T11:48:15.157Z,66.2
2019-02-19T11:49:14.431Z,66.1
2019-02-19T11:50:14.700Z,67.3
2019-02-19T11:51:14.744Z,67.5
2019-02-19T11:52:15.012Z,67.0
2019-02-19T11:53:15.272Z,67.0
2019-02-19T11:54:15.227Z,67.3
2019-02-19T11:55:14.513Z,67.4
2019-02-19T11:56:14.780Z,67.3
2019-02-19T11:57:15.087Z,67.2
2019-02-19T11:58:15.363Z,67.2
2019-02-19T11:59:14.635Z,66.9
2019-02-19T12:00:14.929Z,67.6
2019-02-19T12:01:14.980Z,67.5
2019-02-19T12:02:15.239Z,67.1
2019-02-19T12:03:14.510Z,67.0
2019-02-19T12:04:14.787Z,67.8
2019-02-19T12:05:15.060Z,67.8
2019-02-19T12:06:15.322Z,68.4
2019-02-19T12:07:14.585Z,67.2
2019-02-19T12:08:14.855Z,67.3
2019-02-19T12:09:15.125Z,67.0
2019-02-19T12:10:15.409Z,67.9
2019-02-19T12:11:14.446Z,68.2
2019-02-19T12:12:14.709Z,68.0
2019-02-19T12:13:14.974Z,67.9
2019-02-19T12:14:15.239Z,68.0
2019-02-19T12:15:14.520Z,68.3
2019-02-19T12:16:14.794Z,67.8
2019-02-19T12:17:15.062Z,67.8
2019-02-19T12:18:15.334Z,68.0
2019-02-19T12:19:14.609Z,67.7
2019-02-19T12:20:14.883Z,67.5
2019-02-19T12:21:14.908Z,67.4
2019-02-19T12:22:15.174Z,68.0
2019-02-19T12:23:14.440Z,67.8
2019-02-19T12:24:14.714Z,68.1
2019-02-19T12:25:14.980Z,67.8
2019-02-19T12:26:15.241Z,68.0
2019-02-19T12:27:14.513Z,68.3
2019-02-19T12:28:14.781Z,68.5
2019-02-19T12:29:15.057Z,68.6
2019-02-19T12:30:15.329Z,68.4
2019-02-19T12:31:15.378Z,68.3
2019-02-19T12:32:14.635Z,68.7
2019-02-19T12:33:14.901Z,69.2
2019-02-19T12:34:15.175Z,68.8
2019-02-19T12:35:14.453Z,68.8
2019-02-19T12:36:14.735Z,68.6
2019-02-19T12:37:14.997Z,68.7
2019-02-19T12:38:15.273Z,68.4
2019-02-19T12:39:14.541Z,68.7
2019-02-19T12:40:14.824Z,68.6
2019-02-19T12:41:14.847Z,68.6
2019-02-19T12:42:15.112Z,68.9
2019-02-19T12:43:15.388Z,68.8
2019-02-19T12:44:14.648Z,69.0
2019-02-19T12:45:14.930Z,68.8
2019-02-19T12:46:15.197Z,68.7
2019-02-19T12:47:14.477Z,68.6
2019-02-19T12:48:14.759Z,68.8
2019-02-19T12:49:16.585Z,68.4
2019-02-19T12:50:14.852Z,68.3
2019-02-19T12:51:14.908Z,68.4
2019-02-19T12:52:15.181Z,68.5
2019-02-19T12:53:14.457Z,68.8
2019-02-19T12:54:14.776Z,68.7
2019-02-19T12:55:15.046Z,68.5
2019-02-19T12:56:15.318Z,68.6
2019-02-19T12:57:14.846Z,68.9
2019-02-19T12:58:15.106Z,69.1
2019-02-19T12:59:15.393Z,69.0
2019-02-19T13:00:14.687Z,69.2
2019-02-19T13:01:16.222Z,69.0
2019-02-19T13:02:14.489Z,69.0
2019-02-19T13:03:14.752Z,68.8
2019-02-19T13:04:15.031Z,68.9
2019-02-19T13:05:15.305Z,68.9
2019-02-19T13:06:14.571Z,68.9
2019-02-19T13:07:14.837Z,69.0
2019-02-19T13:08:15.112Z,68.8
2019-02-19T13:09:15.404Z,68.9
2019-02-19T13:10:14.682Z,68.8
2019-02-19T13:11:14.726Z,69.0
2019-02-19T13:12:14.990Z,69.1
2019-02-19T13:13:15.261Z,69.5
2019-02-19T13:14:14.518Z,69.6
2019-02-19T13:15:14.783Z,69.7
2019-02-19T13:16:15.045Z,69.3
2019-02-19T13:17:15.304Z,69.2
2019-02-19T13:18:14.566Z,70.2